Time;durP1;ratioP1;P1;durP2;ratioP2;P2;SDS_P1;SDS_P2;PMS_P1;PMS_P2;Temp;Humidity;BMP_temperature;BMP_pressure;BME280_temperature;BME280_humidity;BME280_pressure;Samples;Min_cycle;Max_cycle;Signal;HPM_P1;HPM_P2
2021/10/05 00:00:33;;;;;;;13.35;10.55;;;;;;;16.66;61.33;100161.59;4482973;32;34143;-47
2021/10/05 00:03:00;;;;;;;13.60;9.95;;;;;;;16.56;61.49;100160.06;4482670;32;34849;-48
2021/10/05 00:05:28;;;;;;;13.02;9.32;;;;;;;16.51;61.67;100161.91;4482589;32;35125;-47
2021/10/05 00:07:56;;;;;;;15.50;9.63;;;;;;;16.59;61.39;100165.22;4482790;32;34813;-47
2021/10/05 00:10:24;;;;;;;11.95;10.00;;;;;;;16.43;61.73;100158.50;4482567;32;34502;-46
2021/10/05 00:12:52;;;;;;;13.55;9.65;;;;;;;16.38;61.96;100164.75;4483018;32;33662;-46
2021/10/05 00:15:20;;;;;;;13.52;9.93;;;;;;;16.33;62.09;100161.34;4482766;32;35212;-46
2021/10/05 00:17:48;;;;;;;14.93;9.85;;;;;;;16.47;61.81;100164.56;4482995;32;34501;-46
2021/10/05 00:20:15;;;;;;;12.50;9.75;;;;;;;16.32;62.05;100168.34;4482632;32;34307;-47
2021/10/05 00:22:43;;;;;;;16.52;10.35;;;;;;;16.22;62.34;100156.25;4482675;32;34140;-47
2021/10/05 00:25:12;;;;;;;15.27;10.68;;;;;;;16.19;62.39;100156.28;4468257;32;34995;-47
2021/10/05 00:27:39;;;;;;;14.10;10.57;;;;;;;16.28;62.08;100153.53;4482446;32;34230;-47
2021/10/05 00:30:08;;;;;;;16.30;9.50;;;;;;;16.35;61.76;100155.16;4482203;32;34869;-47
2021/10/05 00:32:36;;;;;;;13.93;9.57;;;;;;;16.34;61.65;100158.66;4468564;32;34230;-48
2021/10/05 00:35:04;;;;;;;13.38;10.02;;;;;;;16.36;61.56;100156.00;4482332;32;34724;-50
2021/10/05 00:37:32;;;;;;;15.27;10.40;;;;;;;16.17;62.27;100152.84;4482606;32;34575;-46
2021/10/05 00:39:59;;;;;;;13.13;10.23;;;;;;;16.16;62.33;100154.59;4482175;32;33826;-47
2021/10/05 00:42:27;;;;;;;19.92;10.52;;;;;;;16.17;62.43;100155.47;4482170;32;34207;-46
2021/10/05 00:44:54;;;;;;;16.92;10.18;;;;;;;16.13;62.52;100156.41;4482149;32;35799;-46
2021/10/05 00:47:22;;;;;;;14.40;10.45;;;;;;;16.09;62.66;100160.00;4482202;32;35212;-47
2021/10/05 00:49:49;;;;;;;14.52;10.48;;;;;;;16.09;62.67;100162.63;4482130;32;34130;-47
2021/10/05 00:52:18;;;;;;;18.67;11.23;;;;;;;16.08;62.64;100160.88;4467824;32;33732;-47
2021/10/05 00:54:47;;;;;;;14.45;10.43;;;;;;;16.13;62.49;100156.41;4481803;32;35966;-46
2021/10/05 00:57:14;;;;;;;13.70;11.05;;;;;;;16.16;62.41;100169.50;4481492;32;34871;-47
2021/10/05 00:59:42;;;;;;;14.00;10.88;;;;;;;16.10;62.64;100164.34;4481734;32;34599;-47
2021/10/05 01:02:11;;;;;;;21.33;12.52;;;;;;;16.09;62.92;100162.63;4467604;32;34334;-49
2021/10/05 01:04:40;;;;;;;20.35;12.35;;;;;;;16.23;62.59;100158.87;4472955;32;36029;-47
2021/10/05 01:07:19;;;;;;;19.25;11.98;;;;;;;16.25;62.67;100161.47;4486948;32;34671;-48
2021/10/05 01:09:47;;;;;;;19.05;12.85;;;;;;;16.39;62.18;100167.31;4486960;32;33617;-47
2021/10/05 01:12:15;;;;;;;15.32;12.55;;;;;;;16.38;61.99;100160.34;4472935;32;34227;-47
2021/10/05 01:14:43;;;;;;;20.40;13.13;;;;;;;16.28;62.29;100161.41;4473259;32;36033;-49
2021/10/05 01:17:12;;;;;;;21.05;12.65;;;;;;;16.43;61.42;100163.75;4473082;32;34445;-47
2021/10/05 01:19:40;;;;;;;19.20;12.63;;;;;;;16.55;61.32;100166.19;4487331;32;33624;-47
2021/10/05 01:22:08;;;;;;;21.65;13.30;;;;;;;16.54;61.53;100160.97;4486915;32;34170;-48
2021/10/05 01:24:36;;;;;;;22.30;12.48;;;;;;;16.61;61.25;100162.59;4486834;32;34988;-46
2021/10/05 01:27:04;;;;;;;19.17;13.15;;;;;;;16.50;61.60;100154.00;4487048;32;35154;-46
2021/10/05 01:29:33;;;;;;;19.80;13.13;;;;;;;16.52;61.64;100147.84;4486837;32;33439;-47
2021/10/05 01:32:04;;;;;;;16.87;12.63;;;;;;;16.69;61.17;100143.16;4486809;32;34877;-47
2021/10/05 01:34:32;;;;;;;21.08;13.60;;;;;;;16.60;61.36;100140.72;4486683;32;35251;-46
2021/10/05 01:37:00;;;;;;;22.42;12.93;;;;;;;16.60;61.41;100137.22;4486857;32;35175;-46
2021/10/05 01:39:36;;;;;;;20.70;12.57;;;;;;;16.66;61.03;100140.56;4486845;32;34422;-49
2021/10/05 01:42:05;;;;;;;18.12;13.27;;;;;;;16.68;60.86;100136.19;4486713;32;34197;-50
2021/10/05 01:44:34;;;;;;;22.70;13.07;;;;;;;16.75;60.20;100137.78;4486576;32;34737;-47
2021/10/05 01:47:03;;;;;;;18.40;11.98;;;;;;;16.82;60.16;100134.16;4486550;32;35220;-46
2021/10/05 01:49:31;;;;;;;18.30;13.10;;;;;;;16.79;60.20;100144.72;4486389;32;33682;-48
2021/10/05 01:51:59;;;;;;;18.85;12.27;;;;;;;16.80;59.77;100137.69;4486586;32;33839;-47
2021/10/05 01:54:27;;;;;;;19.17;12.80;;;;;;;16.81;59.40;100128.91;4486400;32;36110;-50
2021/10/05 01:56:54;;;;;;;16.20;12.80;;;;;;;16.79;59.37;100130.69;4486380;32;34817;-48
2021/10/05 01:59:22;;;;;;;15.02;11.65;;;;;;;16.81;58.93;100128.91;4486224;32;34407;-46
2021/10/05 02:01:49;;;;;;;20.08;12.57;;;;;;;16.84;59.06;100124.47;4486204;32;34266;-47
2021/10/05 02:04:17;;;;;;;15.55;11.68;;;;;;;16.67;59.44;100121.31;4486243;32;34709;-49
2021/10/05 02:06:45;;;;;;;18.12;12.35;;;;;;;16.63;59.39;100122.28;4486319;32;34215;-46
2021/10/05 02:09:13;;;;;;;17.25;13.40;;;;;;;16.86;58.63;100127.94;4486233;32;33575;-46
2021/10/05 02:11:41;;;;;;;17.27;12.32;;;;;;;16.82;58.91;100121.00;4471900;32;34154;-47
2021/10/05 02:14:09;;;;;;;20.00;12.93;;;;;;;16.79;58.93;100125.44;4484564;32;35222;-47
2021/10/05 02:16:37;;;;;;;20.73;12.75;;;;;;;16.80;58.98;100128.06;4483500;32;34615;-50
2021/10/05 02:19:05;;;;;;;26.60;12.13;;;;;;;16.83;58.65;100127.97;4469300;32;33510;-47
2021/10/05 02:21:34;;;;;;;20.20;12.13;;;;;;;16.83;58.42;100127.97;4483371;32;33937;-47
2021/10/05 02:26:49;;;;;;;19.40;12.37;;;;;;;16.88;58.63;100120.88;4483144;32;35023;-47
2021/10/05 02:29:17;;;;;;;18.05;11.45;;;;;;;16.86;58.52;100121.81;4483567;32;33778;-46
2021/10/05 02:31:46;;;;;;;15.38;11.77;;;;;;;16.80;58.58;100122.81;4483187;32;34506;-51
2021/10/05 02:34:14;;;;;;;17.85;11.70;;;;;;;16.80;58.29;100122.81;4469149;32;34978;-47
2021/10/05 02:36:42;;;;;;;15.77;11.55;;;;;;;16.63;58.61;100122.28;4483552;32;34490;-47
2021/10/05 02:39:10;;;;;;;18.15;11.95;;;;;;;16.59;58.40;100117.94;4483163;32;34740;-46
2021/10/05 02:41:38;;;;;;;16.58;10.40;;;;;;;16.60;58.29;100126.72;4483087;32;34975;-47
2021/10/05 02:44:05;;;;;;;19.87;11.63;;;;;;;16.78;57.58;100134.25;4482853;32;34930;-47
2021/10/05 02:46:33;;;;;;;19.15;11.40;;;;;;;16.76;57.73;100134.25;4483240;32;35896;-47
2021/10/05 02:49:01;;;;;;;19.40;11.00;;;;;;;16.76;57.64;100134.25;4456029;32;34937;-47
2021/10/05 02:51:28;;;;;;;18.77;11.45;;;;;;;16.66;57.74;100131.84;4482859;32;34088;-47
2021/10/05 02:53:57;;;;;;;16.62;11.65;;;;;;;16.80;57.21;100128.06;4482981;32;35846;-49
2021/10/05 02:56:24;;;;;;;16.42;11.12;;;;;;;16.88;57.01;100131.38;4482899;32;35744;-48
2021/10/05 02:58:52;;;;;;;17.55;10.85;;;;;;;17.03;56.45;100130.19;4482967;32;33551;-47
2021/10/05 03:01:19;;;;;;;16.55;10.68;;;;;;;17.02;56.42;100131.09;4482820;32;34758;-47
2021/10/05 03:03:47;;;;;;;15.55;10.50;;;;;;;16.83;56.74;100127.09;4482922;32;35624;-47
2021/10/05 03:06:15;;;;;;;19.20;11.38;;;;;;;16.82;56.75;100126.28;4482773;32;34677;-47
2021/10/05 03:08:42;;;;;;;18.45;10.43;;;;;;;16.77;56.69;100128.13;4468394;32;34692;-47
2021/10/05 03:11:10;;;;;;;17.02;10.48;;;;;;;16.74;56.59;100124.66;4482843;32;33939;-47
2021/10/05 03:13:39;;;;;;;15.63;10.35;;;;;;;16.72;56.89;100114.22;4455630;32;36015;-48
2021/10/05 03:16:06;;;;;;;20.08;11.05;;;;;;;16.63;56.97;100114.41;4482784;32;34249;-47
2021/10/05 03:18:34;;;;;;;16.83;11.10;;;;;;;16.66;56.94;100113.47;4482723;32;33630;-47
2021/10/05 03:21:02;;;;;;;17.27;9.52;;;;;;;16.69;56.82;100119.50;4483071;32;33723;-47
2021/10/05 03:23:29;;;;;;;18.33;10.18;;;;;;;16.81;56.38;100114.00;4483030;32;35043;-47
2021/10/05 03:25:57;;;;;;;16.00;10.48;;;;;;;16.73;56.11;100110.69;4467224;32;35288;-49
2021/10/05 03:28:25;;;;;;;16.00;10.27;;;;;;;16.66;56.20;100108.22;4482779;32;34091;-47
2021/10/05 03:30:52;;;;;;;15.93;8.80;;;;;;;16.61;56.37;100108.31;4482728;32;34785;-46
2021/10/05 03:33:20;;;;;;;21.10;10.45;;;;;;;16.60;56.34;100108.31;4482771;32;35126;-48
2021/10/05 03:35:47;;;;;;;17.23;9.55;;;;;;;16.71;55.94;100101.97;4482759;32;35034;-47
2021/10/05 03:38:15;;;;;;;20.95;10.82;;;;;;;16.65;56.16;100106.47;4482797;32;33623;-47
2021/10/05 03:40:42;;;;;;;15.27;9.65;;;;;;;16.56;56.47;100106.66;4468606;32;34397;-47
2021/10/05 03:43:10;;;;;;;14.13;10.02;;;;;;;16.71;56.01;100107.22;4482671;32;35218;-49
2021/10/05 03:45:37;;;;;;;14.55;9.30;;;;;;;16.80;55.72;100101.78;4483003;32;35525;-51
2021/10/05 03:48:05;;;;;;;20.25;9.65;;;;;;;16.62;56.15;100106.53;4482967;32;33922;-48
2021/10/05 03:50:32;;;;;;;20.60;9.75;;;;;;;16.54;56.08;100104.09;4482779;32;34291;-46
2021/10/05 03:53:00;;;;;;;20.30;9.57;;;;;;;16.50;56.17;100107.59;4482756;32;34864;-47
2021/10/05 03:55:27;;;;;;;14.87;10.50;;;;;;;16.61;55.99;100110.94;4483061;32;35199;-46
2021/10/05 03:57:55;;;;;;;15.32;9.43;;;;;;;16.56;56.13;100114.53;4482478;32;34349;-50
2021/10/05 04:00:22;;;;;;;24.50;9.75;;;;;;;16.59;55.93;100107.44;4482780;32;33867;-47
2021/10/05 04:02:50;;;;;;;13.40;9.85;;;;;;;16.50;56.25;100106.72;4482836;32;35005;-48
2021/10/05 04:05:17;;;;;;;15.65;9.38;;;;;;;16.46;56.26;100105.94;4482656;32;34455;-47
2021/10/05 04:07:49;;;;;;;21.33;9.25;;;;;;;16.41;56.36;100099.03;4482414;32;33555;-47
2021/10/05 04:10:17;;;;;;;16.77;9.05;;;;;;;16.40;56.25;100095.56;4482712;32;33842;-46
2021/10/05 04:12:44;;;;;;;13.77;8.50;;;;;;;16.49;55.93;100103.28;4482843;32;35815;-47
2021/10/05 04:15:12;;;;;;;16.48;9.13;;;;;;;16.38;56.22;100097.34;4482584;32;34875;-46
2021/10/05 04:17:39;;;;;;;19.40;10.05;;;;;;;16.43;56.15;100092.88;4482631;32;33736;-47
2021/10/05 04:20:07;;;;;;;14.57;9.38;;;;;;;16.44;56.19;100102.47;4482569;32;35297;-47
2021/10/05 04:22:35;;;;;;;13.20;9.75;;;;;;;16.48;56.06;100101.53;4482329;32;35556;-46
2021/10/05 04:25:05;;;;;;;20.85;10.30;;;;;;;16.47;56.10;100101.56;4482467;32;34332;-47
2021/10/05 04:27:33;;;;;;;15.07;9.85;;;;;;;16.39;56.35;100098.19;4482523;32;33254;-46
2021/10/05 04:30:06;;;;;;;19.25;10.40;;;;;;;16.42;56.29;100093.78;4482519;32;34267;-47
2021/10/05 04:32:33;;;;;;;21.02;9.43;;;;;;;16.35;56.32;100089.53;4482268;32;35050;-47
2021/10/05 04:35:01;;;;;;;21.05;10.45;;;;;;;16.40;55.90;100095.56;4482503;32;34335;-46
2021/10/05 04:37:29;;;;;;;16.37;10.15;;;;;;;16.47;55.58;100101.56;4481854;32;35648;-49
2021/10/05 04:39:56;;;;;;;17.10;9.50;;;;;;;16.46;55.63;100103.31;4482361;32;34229;-48
2021/10/05 04:42:24;;;;;;;18.30;9.68;;;;;;;16.34;55.86;100105.28;4482272;32;35031;-47
2021/10/05 04:44:51;;;;;;;15.63;9.38;;;;;;;16.54;55.04;100098.81;4482313;32;35208;-47
2021/10/05 04:47:19;;;;;;;11.35;9.00;;;;;;;16.50;55.07;100107.59;4482331;32;33755;-47
2021/10/05 04:49:46;;;;;;;14.13;9.20;;;;;;;16.51;54.96;100106.75;4482430;32;34067;-47
2021/10/05 04:52:14;;;;;;;16.37;8.73;;;;;;;16.50;55.12;100107.59;4482235;32;35868;-47
2021/10/05 04:54:42;;;;;;;18.55;9.02;;;;;;;16.42;55.16;100106.91;4482228;32;34543;-47
2021/10/05 04:57:09;;;;;;;12.35;8.50;;;;;;;16.57;54.59;100106.62;4468110;32;33388;-47
2021/10/05 04:59:37;;;;;;;18.62;10.18;;;;;;;16.50;54.91;100106.72;4482114;32;34685;-46
2021/10/05 05:02:05;;;;;;;13.30;10.00;;;;;;;16.40;54.94;100113.94;4481998;32;35880;-48
2021/10/05 05:04:32;;;;;;;13.75;9.27;;;;;;;16.36;54.90;100117.50;4482023;32;34355;-49
2021/10/05 05:07:00;;;;;;;17.08;8.95;;;;;;;16.60;54.22;100124.94;4481835;32;34588;-46
2021/10/05 05:09:27;;;;;;;16.35;8.77;;;;;;;16.44;54.56;100123.47;4482153;32;34794;-46
2021/10/05 05:11:54;;;;;;;15.93;8.63;;;;;;;16.48;54.15;100121.66;4468120;32;35032;-48
2021/10/05 05:14:22;;;;;;;17.90;9.25;;;;;;;16.45;54.25;100126.97;4482182;32;34622;-46
2021/10/05 05:16:50;;;;;;;14.93;8.82;;;;;;;16.41;54.38;100120.91;4482069;32;33668;-46
2021/10/05 05:19:17;;;;;;;18.37;8.65;;;;;;;16.48;54.10;100119.03;4481898;32;34554;-47
2021/10/05 05:21:45;;;;;;;21.85;8.15;;;;;;;16.50;53.92;100123.34;4482031;32;36363;-49
2021/10/05 05:24:12;;;;;;;18.40;8.50;;;;;;;16.51;53.80;100130.38;4481736;32;34399;-46
2021/10/05 05:26:40;;;;;;;22.15;9.02;;;;;;;16.55;53.52;100126.78;4467791;32;34450;-48
2021/10/05 05:29:07;;;;;;;15.05;8.55;;;;;;;16.55;53.50;100129.44;4481725;32;33835;-47
2021/10/05 05:31:35;;;;;;;16.50;8.32;;;;;;;16.53;53.56;100120.72;4481548;32;34474;-46
2021/10/05 05:34:02;;;;;;;15.45;8.88;;;;;;;16.51;53.48;100125.13;4467462;32;34358;-46
2021/10/05 05:36:30;;;;;;;20.75;9.05;;;;;;;16.55;53.23;100121.53;4481439;32;33631;-49
2021/10/05 05:39:02;;;;;;;17.73;9.88;;;;;;;16.40;53.64;100132.31;4481738;32;34300;-47
2021/10/05 05:41:29;;;;;;;19.50;8.35;;;;;;;16.50;53.36;100132.97;4481256;32;34940;-47
2021/10/05 05:43:57;;;;;;;20.60;8.82;;;;;;;16.56;53.11;100132.91;4481352;32;34158;-49
2021/10/05 05:46:24;;;;;;;28.27;9.10;;;;;;;16.71;52.91;100133.47;4481505;32;33503;-47
2021/10/05 05:48:52;;;;;;;19.23;8.52;;;;;;;16.77;52.88;100140.38;4480840;32;34172;-47
2021/10/05 05:51:20;;;;;;;19.40;9.35;;;;;;;16.87;52.29;100140.19;4483467;32;34836;-47
2021/10/05 05:53:48;;;;;;;19.95;9.05;;;;;;;16.98;52.17;100137.31;4482974;32;34485;-47
2021/10/05 05:56:15;;;;;;;18.95;9.18;;;;;;;17.16;51.61;100131.69;4483252;32;33385;-47
2021/10/05 05:58:43;;;;;;;14.65;8.52;;;;;;;17.17;51.52;100143.03;4483356;32;34240;-46
2021/10/05 06:01:11;;;;;;;21.92;10.27;;;;;;;17.45;50.78;100147.66;4483219;32;35892;-48
2021/10/05 06:03:39;;;;;;;17.12;9.18;;;;;;;17.58;50.46;100136.00;4483703;32;34457;-50
2021/10/05 06:06:06;;;;;;;20.83;9.98;;;;;;;17.59;50.50;100136.84;4483344;32;33667;-49
2021/10/05 06:08:34;;;;;;;19.40;9.70;;;;;;;17.76;50.07;100139.13;4469347;32;34962;-47
2021/10/05 06:11:02;;;;;;;13.62;8.40;;;;;;;17.84;49.71;100150.31;4483345;32;35812;-47
2021/10/05 06:13:29;;;;;;;17.30;8.65;;;;;;;17.87;49.48;100155.50;4483728;32;34305;-47
2021/10/05 06:15:56;;;;;;;11.68;8.30;;;;;;;17.96;49.16;100152.63;4483462;32;33459;-47
2021/10/05 06:18:24;;;;;;;14.50;8.48;;;;;;;18.02;48.61;100145.44;4483519;32;34116;-49
2021/10/05 06:20:51;;;;;;;24.25;8.70;;;;;;;18.19;47.92;100150.28;4483544;32;35349;-47
2021/10/05 06:23:19;;;;;;;14.20;8.73;;;;;;;18.38;47.81;100141.00;4483220;32;34765;-46
2021/10/05 06:25:47;;;;;;;15.25;8.63;;;;;;;18.09;48.16;100147.03;4483665;32;33709;-47
2021/10/05 06:28:15;;;;;;;17.80;8.52;;;;;;;18.17;47.93;100154.72;4469431;32;33519;-46
2021/10/05 06:30:42;;;;;;;12.35;8.57;;;;;;;18.30;47.91;100157.94;4483447;32;35927;-46
2021/10/05 06:33:10;;;;;;;21.20;8.75;;;;;;;18.30;48.05;100158.78;4456445;32;34603;-47
2021/10/05 06:35:37;;;;;;;22.13;8.38;;;;;;;18.43;47.91;100154.06;4483399;32;33986;-46
2021/10/05 06:38:05;;;;;;;13.45;9.25;;;;;;;18.21;48.07;100170.41;4483321;32;33823;-49
2021/10/05 06:40:33;;;;;;;23.58;9.68;;;;;;;18.19;48.49;100164.31;4468858;32;35274;-47
2021/10/05 06:43:01;;;;;;;18.02;8.98;;;;;;;18.35;47.57;100163.94;4482881;32;34344;-47
2021/10/05 06:45:29;;;;;;;18.55;9.05;;;;;;;18.39;48.02;100149.78;4483059;32;33857;-47
2021/10/05 06:47:56;;;;;;;22.08;9.52;;;;;;;18.27;48.23;100157.09;4483377;32;33845;-47
2021/10/05 06:50:25;;;;;;;16.62;9.00;;;;;;;18.42;48.29;100152.34;4468696;32;35852;-47
2021/10/05 06:52:53;;;;;;;18.87;8.77;;;;;;;18.47;48.35;100155.75;4483246;32;34773;-48
2021/10/05 06:55:20;;;;;;;13.80;8.15;;;;;;;18.54;48.15;100149.41;4455971;32;33872;-47
2021/10/05 06:57:48;;;;;;;15.52;8.85;;;;;;;18.63;47.84;100146.53;4469047;32;34268;-47
2021/10/05 07:00:16;;;;;;;19.90;9.32;;;;;;;18.71;47.61;100145.41;4468593;32;35751;-47
2021/10/05 07:02:47;;;;;;;15.43;8.50;;;;;;;18.74;46.97;100140.06;4483172;32;35288;-48
2021/10/05 07:05:17;;;;;;;12.90;8.50;;;;;;;18.92;46.81;100149.22;4482859;32;33690;-48
2021/10/05 07:07:47;;;;;;;12.25;8.18;;;;;;;18.90;46.72;100141.34;4483038;32;34729;-47
2021/10/05 07:10:16;;;;;;;13.02;7.40;;;;;;;18.99;45.87;100140.22;4468945;32;35877;-47
2021/10/05 07:12:44;;;;;;;16.83;7.68;;;;;;;19.02;46.34;100147.19;4482764;32;34266;-48
2021/10/05 07:15:12;;;;;;;16.60;6.97;;;;;;;18.95;45.77;100143.84;4482601;32;34707;-48
2021/10/05 07:17:40;;;;;;;12.00;6.30;;;;;;;19.11;44.12;100131.94;4468080;32;34285;-47
2021/10/05 07:20:09;;;;;;;14.18;7.43;;;;;;;19.15;43.65;100123.03;4455548;32;35034;-47
2021/10/05 07:22:37;;;;;;;16.85;6.90;;;;;;;19.27;43.53;100114.78;4482370;32;35866;-48
2021/10/05 07:25:04;;;;;;;13.20;6.50;;;;;;;19.23;43.91;100123.66;4467813;32;33903;-49
2021/10/05 07:27:35;;;;;;;10.98;6.80;;;;;;;19.32;43.72;100133.97;4467835;32;33306;-47
2021/10/05 07:30:05;;;;;;;11.68;7.50;;;;;;;19.38;43.19;100138.19;4482534;32;36174;-47
2021/10/05 07:32:33;;;;;;;13.48;7.57;;;;;;;19.53;42.76;100121.91;4482759;32;34420;-47
2021/10/05 07:35:01;;;;;;;15.40;7.15;;;;;;;19.63;42.94;100117.19;4481627;32;34246;-49
2021/10/05 07:37:29;;;;;;;14.85;7.60;;;;;;;19.56;42.93;100111.25;4482536;32;34036;-47
2021/10/05 07:39:59;;;;;;;10.30;7.35;;;;;;;19.58;42.88;100101.53;4483046;32;35020;-50
2021/10/05 07:42:26;;;;;;;11.05;7.45;;;;;;;19.54;43.23;100100.75;4482300;32;34750;-46
2021/10/05 07:44:54;;;;;;;13.55;6.82;;;;;;;19.55;43.56;100105.13;4482618;32;33616;-48
2021/10/05 07:47:22;;;;;;;12.32;7.22;;;;;;;19.73;43.37;100094.87;4482566;32;36171;-47
2021/10/05 07:49:52;;;;;;;11.60;6.80;;;;;;;19.85;42.42;100092.69;4483993;32;35043;-51
2021/10/05 07:52:20;;;;;;;14.45;7.70;;;;;;;19.71;44.91;100088.78;4482788;32;34643;-47
2021/10/05 07:54:48;;;;;;;15.18;6.62;;;;;;;19.80;43.22;100097.25;4482050;32;33531;-46
2021/10/05 07:57:15;;;;;;;8.68;6.30;;;;;;;19.81;42.55;100096.34;4482413;32;34215;-50
2021/10/05 07:59:43;;;;;;;14.10;8.15;;;;;;;20.01;42.40;100103.62;4481784;32;34780;-46
2021/10/05 08:02:10;;;;;;;12.27;7.55;;;;;;;19.93;42.62;100113.56;4481535;32;34581;-47
2021/10/05 08:04:38;;;;;;;14.38;8.25;;;;;;;19.65;42.52;100131.19;4481171;32;33483;-50
2021/10/05 08:07:05;;;;;;;12.75;7.32;;;;;;;19.68;42.16;100117.91;4481489;32;34017;-47
2021/10/05 08:09:33;;;;;;;13.65;7.47;;;;;;;20.01;41.84;100125.59;4481107;32;35620;-48
2021/10/05 08:12:00;;;;;;;12.77;7.15;;;;;;;19.90;42.03;100138.28;4480345;32;34414;-47
2021/10/05 08:14:28;;;;;;;14.87;7.82;;;;;;;20.11;42.01;100128.81;4466809;32;32972;-46
2021/10/05 08:16:55;;;;;;;11.20;7.10;;;;;;;20.17;41.69;100120.66;4481642;32;33963;-48
2021/10/05 08:19:23;;;;;;;13.82;7.00;;;;;;;20.34;41.94;100126.25;4481502;32;35615;-47
2021/10/05 08:21:52;;;;;;;11.50;6.82;;;;;;;20.48;42.29;100120.50;4481750;32;34736;-47
2021/10/05 08:24:20;;;;;;;15.77;7.32;;;;;;;20.65;41.76;100118.97;4480718;32;34356;-47
2021/10/05 08:26:48;;;;;;;12.05;7.53;;;;;;;20.46;41.09;100107.34;4481131;32;34866;-49
2021/10/05 08:29:18;;;;;;;15.45;8.35;;;;;;;20.69;41.26;100088.88;4480532;32;35321;-47
2021/10/05 08:31:47;;;;;;;14.48;8.00;;;;;;;20.50;41.36;100085.16;4481372;32;35285;-48
2021/10/05 08:34:15;;;;;;;17.15;7.62;;;;;;;20.54;41.73;100089.41;4466694;32;33663;-47
2021/10/05 08:36:43;;;;;;;19.40;7.45;;;;;;;20.40;41.44;100081.13;4480963;32;34778;-47
2021/10/05 08:39:14;;;;;;;10.75;6.93;;;;;;;20.61;41.94;100079.50;4480982;32;34970;-47
2021/10/05 08:41:45;;;;;;;10.87;7.17;;;;;;;20.62;41.94;100076.81;4481242;32;35358;-49
2021/10/05 08:44:14;;;;;;;13.85;8.02;;;;;;;20.67;41.59;100092.47;4480946;32;34124;-47
2021/10/05 08:46:43;;;;;;;12.07;8.20;;;;;;;20.64;41.56;100096.09;4466402;32;33475;-48
2021/10/05 08:49:10;;;;;;;19.60;8.48;;;;;;;20.92;41.47;100086.22;4480948;32;35040;-47
2021/10/05 08:51:38;;;;;;;9.35;7.22;;;;;;;21.04;41.17;100084.06;4481215;32;35122;-47
2021/10/05 08:54:08;;;;;;;15.40;7.65;;;;;;;21.06;41.45;100090.19;4480414;32;34375;-49
2021/10/05 08:56:37;;;;;;;16.12;7.82;;;;;;;21.02;41.00;100093.81;4480605;32;33913;-48
2021/10/05 08:59:04;;;;;;;12.37;7.65;;;;;;;21.02;41.15;100086.75;4466249;32;35388;-48
2021/10/05 09:01:33;;;;;;;10.45;7.90;;;;;;;21.27;40.93;100092.00;4480162;32;34968;-47
2021/10/05 09:04:03;;;;;;;11.45;7.22;;;;;;;21.11;40.74;100088.22;4480738;32;33539;-50
2021/10/05 09:06:32;;;;;;;12.55;7.03;;;;;;;21.32;40.72;100090.03;4480495;32;35079;-47
2021/10/05 09:09:01;;;;;;;13.88;7.43;;;;;;;21.45;40.88;100075.38;4466324;32;35335;-47
2021/10/05 09:11:41;;;;;;;15.40;7.72;;;;;;;21.66;40.32;100073.63;4466540;32;34568;-49
2021/10/05 09:14:09;;;;;;;12.95;7.72;;;;;;;21.66;40.16;100071.00;4466500;32;33534;-50
2021/10/05 09:16:37;;;;;;;10.32;6.75;;;;;;;21.55;40.50;100082.03;4466486;32;33469;-46
2021/10/05 09:19:15;;;;;;;13.18;8.13;;;;;;;21.63;40.15;100073.78;4480864;32;35843;-47
2021/10/05 09:21:44;;;;;;;12.15;6.62;;;;;;;21.73;40.37;100075.13;4481080;32;34372;-47
2021/10/05 09:24:35;;;;;;;13.02;7.22;;;;;;;21.79;40.31;100074.87;4481557;32;33328;-52
2021/10/05 09:27:04;;;;;;;12.82;7.05;;;;;;;21.82;40.03;100074.75;4482552;32;34745;-46
2021/10/05 09:29:35;;;;;;;13.48;6.93;;;;;;;21.81;39.74;100065.06;4482513;32;34775;-47
2021/10/05 09:32:09;;;;;;;16.15;7.53;;;;;;;21.89;39.35;100055.94;4482440;32;34413;-47
2021/10/05 09:34:45;;;;;;;17.30;7.82;;;;;;;21.92;39.26;100044.31;4482566;32;34070;-47
2021/10/05 09:37:15;;;;;;;9.70;6.53;;;;;;;22.16;39.37;100036.19;4482547;32;34150;-47
2021/10/05 09:39:47;;;;;;;14.15;6.95;;;;;;;22.33;38.76;100046.06;4482056;32;35770;-47
2021/10/05 09:42:25;;;;;;;9.40;6.43;;;;;;;22.25;38.78;100046.38;4482853;32;35240;-47
2021/10/05 09:45:04;;;;;;;11.07;6.47;;;;;;;22.31;39.11;100062.94;4468348;32;34223;-47
2021/10/05 09:47:43;;;;;;;11.52;6.60;;;;;;;22.35;38.75;100069.81;4482896;32;34464;-47
2021/10/05 09:50:14;;;;;;;10.65;6.72;;;;;;;22.42;38.60;100082.75;4482530;32;34876;-47
2021/10/05 09:52:47;;;;;;;16.73;6.90;;;;;;;22.50;38.37;100085.06;4482342;32;34613;-47
2021/10/05 09:55:17;;;;;;;13.68;6.65;;;;;;;22.62;38.43;100068.66;4469166;32;34181;-46
2021/10/05 09:57:45;;;;;;;8.85;6.00;;;;;;;22.87;38.81;100070.09;4483038;32;35222;-47
2021/10/05 10:00:13;;;;;;;13.98;6.25;;;;;;;22.89;38.40;100057.63;4483178;32;35943;-49
2021/10/05 10:02:44;;;;;;;10.07;6.47;;;;;;;23.13;37.72;100060.09;4483379;32;34722;-47
2021/10/05 10:05:14;;;;;;;12.40;6.43;;;;;;;22.88;37.64;100058.56;4483821;32;34580;-47
2021/10/05 10:07:44;;;;;;;13.25;6.78;;;;;;;23.22;37.52;100057.87;4483516;32;34254;-49
2021/10/05 10:10:19;;;;;;;10.52;6.20;;;;;;;23.26;37.80;100055.91;4483787;32;35801;-47
2021/10/05 10:12:52;;;;;;;10.70;5.75;;;;;;;23.32;37.61;100061.78;4483638;32;34763;-47
2021/10/05 10:15:27;;;;;;;12.55;6.15;;;;;;;23.31;37.97;100053.91;4483966;32;36017;-47
2021/10/05 10:18:10;;;;;;;12.40;6.55;;;;;;;23.43;37.50;100045.38;4483528;32;35043;-47
2021/10/05 10:20:40;;;;;;;12.80;6.22;;;;;;;23.41;37.21;100045.47;4483722;32;35896;-48
2021/10/05 10:23:25;;;;;;;11.18;6.45;;;;;;;23.63;36.83;100042.59;4483259;32;35625;-48
2021/10/05 10:25:55;;;;;;;13.23;6.68;;;;;;;23.45;36.55;100047.03;4482902;32;33289;-47
2021/10/05 10:28:27;;;;;;;15.07;6.32;;;;;;;23.47;36.46;100033.66;4469566;32;34776;-47
2021/10/05 10:30:57;;;;;;;8.48;5.53;;;;;;;23.64;36.55;100024.88;4483667;32;35650;-48
2021/10/05 10:33:27;;;;;;;11.68;5.37;;;;;;;23.60;36.35;100010.91;4483378;32;34670;-47
2021/10/05 10:35:57;;;;;;;9.27;5.87;;;;;;;23.51;36.72;100013.97;4482110;32;34507;-47
2021/10/05 10:38:27;;;;;;;10.13;6.03;;;;;;;23.57;36.41;100008.38;4483044;32;34081;-48
2021/10/05 10:40:56;;;;;;;12.18;6.03;;;;;;;23.74;35.64;100004.88;4483519;32;34774;-47
2021/10/05 10:43:27;;;;;;;11.98;5.57;;;;;;;23.72;36.14;100012.06;4482801;32;34467;-47
2021/10/05 10:45:57;;;;;;;13.80;5.75;;;;;;;23.64;35.75;100007.16;4483423;32;33526;-48
2021/10/05 10:48:33;;;;;;;8.77;5.35;;;;;;;23.50;36.06;100007.84;4482484;32;33977;-47
2021/10/05 10:51:14;;;;;;;8.25;5.28;;;;;;;23.57;35.55;100016.34;4468991;32;35182;-47
2021/10/05 10:53:44;;;;;;;7.65;5.55;;;;;;;23.85;35.54;100013.16;4482133;32;35217;-48
2021/10/05 10:56:34;;;;;;;11.05;5.82;;;;;;;23.76;35.23;100018.94;4483208;32;34829;-47
2021/10/05 10:59:10;;;;;;;11.68;6.10;;;;;;;23.96;34.99;100016.97;4483714;32;34043;-52
2021/10/05 11:01:45;;;;;;;8.20;5.25;;;;;;;24.10;35.35;100014.50;4482459;32;36344;-47
2021/10/05 11:04:17;;;;;;;8.15;5.10;;;;;;;24.18;34.51;100011.44;4483059;32;34305;-47
2021/10/05 11:06:49;;;;;;;10.93;4.90;;;;;;;24.14;34.32;100002.78;4482504;32;33826;-47
2021/10/05 11:09:17;;;;;;;10.18;5.95;;;;;;;24.13;33.78;99994.88;4482840;32;34664;-47
2021/10/05 11:11:52;;;;;;;9.52;5.22;;;;;;;24.29;34.06;100002.94;4483328;32;36209;-47
2021/10/05 11:14:22;;;;;;;8.57;5.15;;;;;;;24.27;34.25;99996.84;4483159;32;34713;-47
2021/10/05 11:16:55;;;;;;;12.05;5.28;;;;;;;24.52;33.63;99999.88;4481813;32;33726;-47
2021/10/05 11:19:49;;;;;;;9.70;5.28;;;;;;;24.38;32.81;99992.66;4482967;32;35360;-51
2021/10/05 11:22:16;;;;;;;11.90;4.85;;;;;;;24.45;33.27;99990.53;4479676;32;34954;-47
2021/10/05 11:24:46;;;;;;;8.25;5.22;;;;;;;24.45;32.98;99988.72;4483046;32;34747;-47